createdAt,value
2018-06-15T00:01:04.889Z,14.00
2018-06-15T00:03:33.522Z,16.50
2018-06-15T00:06:01.718Z,15.87
2018-06-15T00:08:30.176Z,16.77
2018-06-15T00:10:58.997Z,15.50
2018-06-15T00:13:27.482Z,17.17
2018-06-15T00:15:56.276Z,16.13
2018-06-15T00:18:27.113Z,15.67
2018-06-15T00:20:55.716Z,17.40
2018-06-15T00:23:24.205Z,15.90
2018-06-15T00:25:52.375Z,17.70
2018-06-15T00:28:20.900Z,15.40
2018-06-15T00:30:49.371Z,17.97
2018-06-15T00:33:17.896Z,20.67
2018-06-15T00:35:46.522Z,17.10
2018-06-15T00:38:14.676Z,18.70
2018-06-15T00:40:43.184Z,17.13
2018-06-15T00:43:11.971Z,20.90
2018-06-15T00:45:40.514Z,18.40
2018-06-15T00:48:09.033Z,17.07
2018-06-15T00:50:37.180Z,20.73
2018-06-15T00:53:05.733Z,20.10
2018-06-15T00:55:34.208Z,19.37
2018-06-15T00:58:02.774Z,17.07
2018-06-15T01:00:31.228Z,19.00
2018-06-15T01:02:59.688Z,21.87
2018-06-15T01:05:28.200Z,17.70
2018-06-15T01:07:56.696Z,20.47
2018-06-15T01:10:25.386Z,24.77
2018-06-15T01:12:53.937Z,23.63
2018-06-15T01:15:22.617Z,21.20
2018-06-15T01:17:51.164Z,23.27
2018-06-15T01:20:19.720Z,24.97
2018-06-15T01:22:48.253Z,26.87
2018-06-15T01:25:16.709Z,26.93
2018-06-15T01:27:45.285Z,28.10
2018-06-15T01:30:13.799Z,26.83
2018-06-15T01:32:42.281Z,28.50
2018-06-15T01:35:11.084Z,31.67
2018-06-15T01:37:39.604Z,29.60
2018-06-15T01:40:08.145Z,26.00
2018-06-15T01:42:36.964Z,28.97
2018-06-15T01:45:05.576Z,29.53
2018-06-15T01:47:34.089Z,26.80
2018-06-15T01:50:02.593Z,27.17
2018-06-15T01:52:31.110Z,26.80
2018-06-15T01:54:59.591Z,23.60
2018-06-15T01:57:28.265Z,25.33
2018-06-15T01:59:57.084Z,22.23
2018-06-15T02:02:25.638Z,22.37
2018-06-15T02:04:54.284Z,22.43
2018-06-15T02:07:22.800Z,22.43
2018-06-15T02:09:51.979Z,22.03
2018-06-15T02:12:20.502Z,18.37
2018-06-15T02:14:49.124Z,21.70
2018-06-15T02:17:17.756Z,19.83
2018-06-15T02:19:46.284Z,19.37
2018-06-15T02:22:14.789Z,20.87
2018-06-15T02:24:43.318Z,22.37
2018-06-15T02:27:11.855Z,21.20
2018-06-15T02:29:40.328Z,17.47
2018-06-15T02:32:08.837Z,21.57
2018-06-15T02:34:37.313Z,17.77
2018-06-15T02:37:06.029Z,20.17
2018-06-15T02:39:34.509Z,16.17
2018-06-15T02:42:03.665Z,18.20
2018-06-15T02:44:32.236Z,18.97
2018-06-15T02:47:00.709Z,22.00
2018-06-15T02:49:29.168Z,19.63
2018-06-15T02:51:57.713Z,18.73
2018-06-15T02:54:26.298Z,16.43
2018-06-15T02:56:54.681Z,17.80
2018-06-15T02:59:22.865Z,17.77
2018-06-15T03:01:51.472Z,19.60
2018-06-15T03:04:19.985Z,20.03
2018-06-15T03:06:48.543Z,18.30
2018-06-15T03:09:17.230Z,19.53
2018-06-15T03:11:45.773Z,18.63
2018-06-15T03:14:14.324Z,18.47
2018-06-15T03:16:42.789Z,21.30
2018-06-15T03:19:11.274Z,20.73
2018-06-15T03:21:39.753Z,20.63
2018-06-15T03:24:08.228Z,22.07
2018-06-15T03:26:36.687Z,18.03
2018-06-15T03:29:05.181Z,18.37
2018-06-15T03:31:33.674Z,19.17
2018-06-15T03:34:02.160Z,23.43
2018-06-15T03:36:30.688Z,19.80
2018-06-15T03:38:59.320Z,18.93
2018-06-15T03:41:28.057Z,21.47
2018-06-15T03:43:56.587Z,20.67
2018-06-15T03:46:25.097Z,19.97
2018-06-15T03:48:53.706Z,18.23
2018-06-15T03:51:22.192Z,19.77
2018-06-15T03:53:50.713Z,18.80
2018-06-15T03:56:19.202Z,17.67
2018-06-15T03:58:47.876Z,19.80
2018-06-15T04:01:16.354Z,19.83
2018-06-15T04:03:44.919Z,20.27
2018-06-15T04:06:13.438Z,17.23
2018-06-15T04:08:41.967Z,18.00
2018-06-15T04:11:10.509Z,17.33
2018-06-15T04:13:39.047Z,18.67
2018-06-15T04:16:07.597Z,17.13
2018-06-15T04:18:36.360Z,17.97
2018-06-15T04:21:04.934Z,19.90
2018-06-15T04:23:33.435Z,18.33
2018-06-15T04:26:02.054Z,23.07
2018-06-15T04:28:30.607Z,19.43
2018-06-15T04:30:59.320Z,22.57
2018-06-15T04:33:27.826Z,18.37
2018-06-15T04:35:56.630Z,19.50
2018-06-15T04:38:24.808Z,19.37
2018-06-15T04:40:53.377Z,19.57
2018-06-15T04:43:22.029Z,21.93
2018-06-15T04:45:50.531Z,22.53
2018-06-15T04:48:19.580Z,19.03
2018-06-15T04:50:48.197Z,21.67
2018-06-15T04:53:16.785Z,20.50
2018-06-15T04:55:45.337Z,16.00
2018-06-15T04:58:13.914Z,14.73
2018-06-15T05:00:42.497Z,15.23
2018-06-15T05:03:14.352Z,13.93
2018-06-15T05:05:44.026Z,12.00
2018-06-15T05:08:12.960Z,11.37
2018-06-15T05:10:41.613Z,11.57
2018-06-15T05:13:10.359Z,11.20
2018-06-15T05:15:39.005Z,13.97
2018-06-15T05:18:07.555Z,11.07
2018-06-15T05:20:36.381Z,11.23
2018-06-15T05:23:05.050Z,8.03
2018-06-15T05:25:33.579Z,11.93
2018-06-15T05:28:01.839Z,12.07
2018-06-15T05:30:30.469Z,12.53
2018-06-15T05:32:59.021Z,8.13
2018-06-15T05:35:27.854Z,9.87
2018-06-15T05:37:56.397Z,11.67
2018-06-15T05:40:25.132Z,16.07
2018-06-15T05:42:53.753Z,11.27
2018-06-15T05:45:22.471Z,10.47
2018-06-15T05:47:51.076Z,10.00
2018-06-15T05:50:19.854Z,11.97
2018-06-15T05:52:48.436Z,11.93
2018-06-15T05:55:17.382Z,12.07
2018-06-15T05:57:46.184Z,9.73
2018-06-15T06:00:15.062Z,13.93
2018-06-15T06:02:43.755Z,11.70
2018-06-15T06:05:12.332Z,11.50
2018-06-15T06:07:41.080Z,13.23
2018-06-15T06:10:09.893Z,11.17
2018-06-15T06:12:38.729Z,11.20
2018-06-15T06:15:07.648Z,12.37
2018-06-15T06:17:36.629Z,13.97
2018-06-15T06:20:07.255Z,13.03
2018-06-15T06:22:35.837Z,12.67
2018-06-15T06:25:04.460Z,14.13
2018-06-15T06:27:33.063Z,11.93
2018-06-15T06:30:01.756Z,10.10
2018-06-15T06:32:30.480Z,12.53
2018-06-15T06:34:59.033Z,12.53
2018-06-15T06:37:27.628Z,10.77
2018-06-15T06:39:56.260Z,11.87
2018-06-15T06:42:24.436Z,11.80
2018-06-15T06:44:53.651Z,13.20
2018-06-15T06:47:22.243Z,15.23
2018-06-15T06:49:51.074Z,12.10
2018-06-15T06:52:19.948Z,8.27
2018-06-15T06:54:48.468Z,14.23
2018-06-15T06:57:17.048Z,8.53
2018-06-15T06:59:45.724Z,10.10
2018-06-15T07:02:14.278Z,7.73
2018-06-15T07:04:42.980Z,8.87
2018-06-15T07:07:11.562Z,9.33
2018-06-15T07:09:40.114Z,8.70
2018-06-15T07:12:11.710Z,10.53
2018-06-15T07:14:40.280Z,8.63
2018-06-15T07:17:09.116Z,10.13
2018-06-15T07:19:37.661Z,9.03
2018-06-15T07:22:06.236Z,8.37
2018-06-15T07:24:35.134Z,11.63
2018-06-15T07:27:04.033Z,9.57
2018-06-15T07:29:32.630Z,13.07
2018-06-15T07:32:01.215Z,9.70
2018-06-15T07:34:29.993Z,12.97
2018-06-15T07:36:58.546Z,9.77
2018-06-15T07:39:27.163Z,9.53
2018-06-15T07:41:55.819Z,11.33
2018-06-15T07:44:24.499Z,13.40
2018-06-15T07:46:53.072Z,10.63
2018-06-15T07:49:21.773Z,11.43
2018-06-15T07:51:50.455Z,13.23
2018-06-15T07:54:19.014Z,10.13
2018-06-15T07:56:47.573Z,9.73
2018-06-15T07:59:16.131Z,10.43
2018-06-15T08:01:44.709Z,11.13
2018-06-15T08:04:13.321Z,10.13
2018-06-15T08:06:42.311Z,12.93
2018-06-15T08:09:10.995Z,11.43
2018-06-15T08:11:39.588Z,8.13
2018-06-15T08:14:08.161Z,9.80
2018-06-15T08:16:36.933Z,13.47
2018-06-15T08:19:05.906Z,12.13
2018-06-15T08:21:34.602Z,10.17
2018-06-15T08:24:03.462Z,8.17
2018-06-15T08:26:32.006Z,9.27
2018-06-15T08:29:00.517Z,10.03
2018-06-15T08:31:29.058Z,8.03
2018-06-15T08:33:58.232Z,8.27
2018-06-15T08:36:26.792Z,9.17
2018-06-15T08:38:54.964Z,6.80
2018-06-15T08:41:23.624Z,8.67
2018-06-15T08:43:52.205Z,10.63
2018-06-15T08:46:21.081Z,7.80
2018-06-15T08:48:50.369Z,8.00
2018-06-15T08:51:19.369Z,9.60
2018-06-15T08:53:48.293Z,8.20
2018-06-15T08:56:17.122Z,6.77
2018-06-15T08:58:45.743Z,6.13
2018-06-15T09:01:14.386Z,7.53
2018-06-15T09:03:43.204Z,7.87
2018-06-15T09:06:11.833Z,3.90
2018-06-15T09:08:40.646Z,5.60
2018-06-15T09:11:09.296Z,6.03
2018-06-15T09:13:37.837Z,6.00
2018-06-15T09:16:06.842Z,6.77
2018-06-15T09:18:35.336Z,4.03
2018-06-15T09:21:04.115Z,4.47
2018-06-15T09:23:32.922Z,4.90
2018-06-15T09:26:01.190Z,5.23
2018-06-15T09:28:30.394Z,4.07
2018-06-15T09:30:59.405Z,4.53
2018-06-15T09:33:28.277Z,3.97
2018-06-15T09:35:56.796Z,3.83
2018-06-15T09:38:25.896Z,2.90
2018-06-15T09:40:54.758Z,2.03
2018-06-15T09:43:23.312Z,3.13
2018-06-15T09:45:51.889Z,2.83
2018-06-15T09:48:20.537Z,2.53
2018-06-15T09:50:49.055Z,4.37
2018-06-15T09:53:17.842Z,2.70
2018-06-15T09:55:46.436Z,1.90
2018-06-15T09:58:15.121Z,1.63
2018-06-15T10:00:49.161Z,1.73
2018-06-15T10:03:18.013Z,1.43
2018-06-15T10:05:46.879Z,2.03
2018-06-15T10:08:15.402Z,2.20
2018-06-15T10:10:44.295Z,1.87
2018-06-15T10:13:12.853Z,3.10
2018-06-15T10:15:41.493Z,1.37
2018-06-15T10:18:10.369Z,3.33
2018-06-15T10:20:38.910Z,1.73
2018-06-15T10:23:07.449Z,2.27
2018-06-15T10:25:36.223Z,1.77
2018-06-15T10:28:04.908Z,1.83
2018-06-15T10:30:33.684Z,1.90
2018-06-15T10:33:02.347Z,0.90
2018-06-15T10:35:31.110Z,2.30
2018-06-15T10:37:59.709Z,1.77
2018-06-15T10:40:28.255Z,2.03
2018-06-15T10:42:56.911Z,1.43
2018-06-15T10:45:25.548Z,2.20
2018-06-15T10:47:54.067Z,2.57
2018-06-15T10:50:22.655Z,1.87
2018-06-15T10:52:51.248Z,1.87
2018-06-15T10:55:20.373Z,2.83
2018-06-15T10:57:48.947Z,2.20
2018-06-15T11:00:17.505Z,2.20
2018-06-15T11:02:46.552Z,1.23
2018-06-15T11:05:15.136Z,3.10
2018-06-15T11:07:44.144Z,2.30
2018-06-15T11:10:13.403Z,2.27
2018-06-15T11:12:42.368Z,3.50
2018-06-15T11:15:10.952Z,2.50
2018-06-15T11:17:39.559Z,2.10
2018-06-15T11:20:08.262Z,1.70
2018-06-15T11:22:37.353Z,2.77
2018-06-15T11:25:06.165Z,2.43
2018-06-15T11:27:34.706Z,2.83
2018-06-15T11:30:03.465Z,2.13
2018-06-15T11:32:32.250Z,3.43
2018-06-15T11:35:01.065Z,4.00
2018-06-15T11:37:29.783Z,1.63
2018-06-15T11:39:58.499Z,4.23
2018-06-15T11:42:27.187Z,1.53
2018-06-15T11:44:55.839Z,1.67
2018-06-15T11:47:24.582Z,2.77
2018-06-15T11:49:53.258Z,1.73
2018-06-15T11:52:21.882Z,3.47
2018-06-15T11:54:50.417Z,3.20
2018-06-15T11:57:18.946Z,2.40
2018-06-15T11:59:47.634Z,2.37
2018-06-15T12:02:16.450Z,3.23
2018-06-15T12:04:45.019Z,2.50
2018-06-15T12:07:14.123Z,2.83
2018-06-15T12:09:42.666Z,6.03
2018-06-15T12:12:11.737Z,1.57
2018-06-15T12:14:40.298Z,2.83
2018-06-15T12:17:08.890Z,1.87
2018-06-15T12:19:37.421Z,2.20
2018-06-15T12:22:06.109Z,1.20
2018-06-15T12:24:34.745Z,2.03
2018-06-15T12:27:03.647Z,4.50
2018-06-15T12:29:31.796Z,1.70
2018-06-15T12:32:00.356Z,4.27
2018-06-15T12:34:28.888Z,2.13
2018-06-15T12:36:57.637Z,3.97
2018-06-15T12:39:26.743Z,3.47
2018-06-15T12:41:55.467Z,4.57
2018-06-15T12:44:24.249Z,4.90
2018-06-15T12:46:52.764Z,3.60
2018-06-15T12:49:21.579Z,2.83
2018-06-15T12:51:50.172Z,4.30
2018-06-15T12:54:18.804Z,2.27
2018-06-15T12:56:47.375Z,3.03
2018-06-15T12:59:15.968Z,2.47
2018-06-15T13:01:44.843Z,2.43
2018-06-15T13:04:13.412Z,3.63
2018-06-15T13:06:41.698Z,4.37
2018-06-15T13:09:11.925Z,3.00
2018-06-15T13:11:40.585Z,3.17
2018-06-15T13:14:09.077Z,2.37
2018-06-15T13:16:37.811Z,2.80
2018-06-15T13:19:06.467Z,4.93
2018-06-15T13:21:36.353Z,3.77
2018-06-15T13:24:04.937Z,2.90
2018-06-15T13:26:33.465Z,3.90
2018-06-15T13:29:02.022Z,3.67
2018-06-15T13:31:30.667Z,3.60
2018-06-15T13:33:59.145Z,4.10
2018-06-15T13:36:27.697Z,2.67
2018-06-15T13:38:56.255Z,3.27
2018-06-15T13:41:24.758Z,3.93
2018-06-15T13:43:53.805Z,4.13
2018-06-15T13:46:22.503Z,5.13
2018-06-15T13:48:51.614Z,4.30
2018-06-15T13:51:20.270Z,3.70
2018-06-15T13:53:48.836Z,3.77
2018-06-15T13:56:17.423Z,3.63
2018-06-15T13:58:45.934Z,4.97
2018-06-15T14:01:14.760Z,4.83
2018-06-15T14:03:43.308Z,5.20
2018-06-15T14:06:11.978Z,5.20
2018-06-15T14:08:40.528Z,4.77
2018-06-15T14:11:09.091Z,5.57
2018-06-15T14:13:37.672Z,4.10
2018-06-15T14:16:06.889Z,7.27
2018-06-15T14:18:35.502Z,4.37
2018-06-15T14:21:04.294Z,6.63
2018-06-15T14:23:32.878Z,5.97
2018-06-15T14:26:01.653Z,4.43
2018-06-15T14:28:30.231Z,6.53
2018-06-15T14:30:58.794Z,4.90
2018-06-15T14:33:27.419Z,4.60
2018-06-15T14:35:56.253Z,5.47
2018-06-15T14:38:24.915Z,5.77
2018-06-15T14:40:53.914Z,4.70
2018-06-15T14:43:22.927Z,4.60
2018-06-15T14:45:51.464Z,4.80
2018-06-15T14:48:20.408Z,4.83
2018-06-15T14:50:49.081Z,5.63
2018-06-15T14:53:18.024Z,6.10
2018-06-15T14:55:46.641Z,4.50
2018-06-15T14:58:15.269Z,4.47
2018-06-15T15:00:43.820Z,6.10
2018-06-15T15:03:12.509Z,5.43
2018-06-15T15:05:41.132Z,4.47
2018-06-15T15:08:09.696Z,9.80
2018-06-15T15:10:38.209Z,6.37
2018-06-15T15:13:06.848Z,4.43
2018-06-15T15:15:35.766Z,5.67
2018-06-15T15:18:04.884Z,4.63
2018-06-15T15:20:34.328Z,5.17
2018-06-15T15:23:03.088Z,6.27
2018-06-15T15:25:32.137Z,6.07
2018-06-15T15:28:00.616Z,4.63
2018-06-15T15:30:29.320Z,4.33
2018-06-15T15:32:57.820Z,4.27
2018-06-15T15:35:26.334Z,6.70
2018-06-15T15:37:54.873Z,4.10
2018-06-15T15:40:23.377Z,7.27
2018-06-15T15:42:51.933Z,5.17
2018-06-15T15:45:20.719Z,8.17
2018-06-15T15:47:49.833Z,7.63
2018-06-15T15:50:18.742Z,6.63
2018-06-15T15:52:47.557Z,6.80
2018-06-15T15:55:16.263Z,4.90
2018-06-15T15:57:45.143Z,6.17
2018-06-15T16:00:13.918Z,4.20
2018-06-15T16:02:42.526Z,4.80
2018-06-15T16:05:11.166Z,5.77
2018-06-15T16:07:39.692Z,4.23
2018-06-15T16:10:08.468Z,2.93
2018-06-15T16:12:37.006Z,6.27
2018-06-15T16:15:05.765Z,6.07
2018-06-15T16:17:34.360Z,8.57
2018-06-15T16:20:02.668Z,7.53
2018-06-15T16:22:31.178Z,5.03
2018-06-15T16:25:00.041Z,5.83
2018-06-15T16:27:28.603Z,5.07
2018-06-15T16:29:57.205Z,5.17
2018-06-15T16:32:25.832Z,6.63
2018-06-15T16:34:54.375Z,5.77
2018-06-15T16:37:23.148Z,3.60
2018-06-15T16:39:51.890Z,4.90
2018-06-15T16:42:20.151Z,5.07
2018-06-15T16:44:49.048Z,4.60
2018-06-15T16:47:17.639Z,3.60
2018-06-15T16:49:46.206Z,4.80
2018-06-15T16:52:15.182Z,7.47
2018-06-15T16:54:44.065Z,6.80
2018-06-15T16:57:13.058Z,4.87
2018-06-15T16:59:41.612Z,5.63
2018-06-15T17:02:10.540Z,3.73
2018-06-15T17:04:39.148Z,4.17
2018-06-15T17:07:07.823Z,6.80
2018-06-15T17:09:36.437Z,3.80
2018-06-15T17:12:05.043Z,7.63
2018-06-15T17:14:33.602Z,5.07
2018-06-15T17:17:02.185Z,7.33
2018-06-15T17:19:30.763Z,3.97
2018-06-15T17:21:59.287Z,4.83
2018-06-15T17:24:28.067Z,4.37
2018-06-15T17:26:56.798Z,5.07
2018-06-15T17:29:25.363Z,5.07
2018-06-15T17:31:54.079Z,3.83
2018-06-15T17:34:22.833Z,7.53
2018-06-15T17:36:51.588Z,5.10
2018-06-15T17:39:20.161Z,4.90
2018-06-15T17:41:48.732Z,6.97
2018-06-15T17:44:17.372Z,5.90
2018-06-15T17:46:46.130Z,4.10
2018-06-15T17:49:14.698Z,4.90
2018-06-15T17:51:43.421Z,4.17
2018-06-15T17:54:11.957Z,4.90
2018-06-15T17:56:40.795Z,4.63
2018-06-15T17:59:09.479Z,3.90
2018-06-15T18:01:38.370Z,5.97
2018-06-15T18:04:06.549Z,4.67
2018-06-15T18:06:35.342Z,5.73
2018-06-15T18:09:05.633Z,4.93
2018-06-15T18:11:34.119Z,2.83
2018-06-15T18:14:03.251Z,8.60
2018-06-15T18:16:31.802Z,4.33
2018-06-15T18:19:00.373Z,6.93
2018-06-15T18:21:28.969Z,4.57
2018-06-15T18:23:57.595Z,3.67
2018-06-15T18:26:26.111Z,7.00
2018-06-15T18:28:54.829Z,4.77
2018-06-15T18:31:23.390Z,3.70
2018-06-15T18:33:52.909Z,7.20
2018-06-15T18:36:21.430Z,4.23
2018-06-15T18:38:49.919Z,7.70
2018-06-15T18:41:18.909Z,5.80
2018-06-15T18:43:47.376Z,4.77
2018-06-15T18:46:15.929Z,5.07
2018-06-15T18:48:44.487Z,6.23
2018-06-15T18:51:13.069Z,4.77
2018-06-15T18:53:41.700Z,8.43
2018-06-15T18:56:10.419Z,7.60
2018-06-15T18:58:38.964Z,5.73
2018-06-15T19:01:08.101Z,6.43
2018-06-15T19:03:36.641Z,6.10
2018-06-15T19:06:05.242Z,6.30
2018-06-15T19:08:33.785Z,6.70
2018-06-15T19:11:01.999Z,6.00
2018-06-15T19:13:30.550Z,7.03
2018-06-15T19:15:59.069Z,9.23
2018-06-15T19:18:27.625Z,6.77
2018-06-15T19:20:56.636Z,6.93
2018-06-15T19:23:25.298Z,10.80
2018-06-15T19:25:53.920Z,9.50
2018-06-15T19:28:22.454Z,9.47
2018-06-15T19:30:50.983Z,6.37
2018-06-15T19:33:19.620Z,7.10
2018-06-15T19:35:48.157Z,6.33
2018-06-15T19:38:16.786Z,5.23
2018-06-15T19:40:45.345Z,3.93
2018-06-15T19:43:13.890Z,8.07
2018-06-15T19:45:42.809Z,6.40
2018-06-15T19:48:11.371Z,6.87
2018-06-15T19:50:39.916Z,5.47
2018-06-15T19:53:08.558Z,7.03
2018-06-15T19:55:43.864Z,7.60
2018-06-15T19:58:12.365Z,10.63
2018-06-15T20:00:41.002Z,6.17
2018-06-15T20:03:09.586Z,4.40
2018-06-15T20:05:38.457Z,6.87
2018-06-15T20:08:06.998Z,7.63
2018-06-15T20:10:35.953Z,8.80
2018-06-15T20:13:04.437Z,4.77
2018-06-15T20:15:33.249Z,7.30
2018-06-15T20:18:01.819Z,5.93
2018-06-15T20:20:30.425Z,5.47
2018-06-15T20:22:58.941Z,10.70
2018-06-15T20:25:27.485Z,7.23
2018-06-15T20:27:55.997Z,6.53
2018-06-15T20:30:24.521Z,8.53
2018-06-15T20:32:53.067Z,8.50
2018-06-15T20:35:21.733Z,12.63
2018-06-15T20:37:49.897Z,6.50
2018-06-15T20:40:18.481Z,8.23
2018-06-15T20:42:47.052Z,6.90
2018-06-15T20:45:15.587Z,8.03
2018-06-15T20:47:44.071Z,5.87
2018-06-15T20:50:12.674Z,6.07
2018-06-15T20:52:41.156Z,5.40
2018-06-15T20:55:09.645Z,6.87
2018-06-15T20:57:38.157Z,6.50
2018-06-15T21:00:06.723Z,8.17
2018-06-15T21:02:35.624Z,7.27
2018-06-15T21:05:04.237Z,11.23
2018-06-15T21:07:32.828Z,8.57
2018-06-15T21:10:01.446Z,6.57
2018-06-15T21:12:29.988Z,7.00
2018-06-15T21:14:59.789Z,9.53
2018-06-15T21:17:27.965Z,8.10
2018-06-15T21:19:56.505Z,8.67
2018-06-15T21:22:25.057Z,9.37
2018-06-15T21:24:53.540Z,5.10
2018-06-15T21:27:22.126Z,4.80
2018-06-15T21:29:51.040Z,7.47
2018-06-15T21:32:19.621Z,8.30
2018-06-15T21:34:48.105Z,6.70
2018-06-15T21:37:16.409Z,6.53
2018-06-15T21:39:51.664Z,7.43
2018-06-15T21:42:20.192Z,6.17
2018-06-15T21:44:49.197Z,4.67
2018-06-15T21:47:18.074Z,7.87
2018-06-15T21:49:46.563Z,7.23
2018-06-15T21:52:15.317Z,5.67
2018-06-15T21:54:43.567Z,6.43
2018-06-15T21:57:12.061Z,7.70
2018-06-15T21:59:40.589Z,7.30
2018-06-15T22:02:09.168Z,8.57
2018-06-15T22:04:37.688Z,8.67
2018-06-15T22:07:06.194Z,7.80
2018-06-15T22:09:34.779Z,7.63
2018-06-15T22:12:03.469Z,6.97
2018-06-15T22:14:32.064Z,6.60
2018-06-15T22:17:00.726Z,5.70
2018-06-15T22:19:29.497Z,6.27
2018-06-15T22:21:58.020Z,8.77
2018-06-15T22:24:26.716Z,5.57
2018-06-15T22:26:55.372Z,5.90
2018-06-15T22:29:23.836Z,8.33
2018-06-15T22:31:52.312Z,8.43
2018-06-15T22:34:20.802Z,7.10
2018-06-15T22:36:49.325Z,7.30
2018-06-15T22:39:17.876Z,10.37
2018-06-15T22:41:46.457Z,10.10
2018-06-15T22:44:15.045Z,12.40
2018-06-15T22:46:43.668Z,10.83
2018-06-15T22:49:12.708Z,9.00
2018-06-15T22:51:41.994Z,6.33
2018-06-15T22:54:10.684Z,8.00
2018-06-15T22:56:39.309Z,10.63
2018-06-15T22:59:07.885Z,10.13
2018-06-15T23:01:36.369Z,9.47
2018-06-15T23:04:04.628Z,9.63
2018-06-15T23:06:33.238Z,8.93
2018-06-15T23:09:01.770Z,9.63
2018-06-15T23:11:30.404Z,9.47
2018-06-15T23:13:58.680Z,9.10
2018-06-15T23:16:27.289Z,8.67
2018-06-15T23:18:55.967Z,7.33
2018-06-15T23:21:24.509Z,11.47
2018-06-15T23:23:52.857Z,11.00
2018-06-15T23:26:21.323Z,8.13
2018-06-15T23:28:49.840Z,8.07
2018-06-15T23:31:18.357Z,10.03
2018-06-15T23:33:47.191Z,7.40
2018-06-15T23:36:15.750Z,12.10
2018-06-15T23:38:44.336Z,9.37
2018-06-15T23:41:12.809Z,9.23
2018-06-15T23:43:41.376Z,9.30
2018-06-15T23:46:09.944Z,10.87
2018-06-15T23:48:38.468Z,10.13
2018-06-15T23:51:07.357Z,7.83
2018-06-15T23:53:35.835Z,8.20
2018-06-15T23:56:04.519Z,7.63
2018-06-15T23:58:32.988Z,8.77
